createdAt,value
2018-05-03T07:37:20.761Z,14.35
2018-05-03T07:39:51.040Z,14.69
2018-05-03T07:42:18.619Z,14.85
2018-05-03T07:44:47.133Z,14.84
2018-05-03T07:47:14.716Z,14.99
2018-05-03T07:49:42.317Z,15.14
2018-05-03T07:52:10.022Z,14.91
2018-05-03T07:54:37.646Z,14.82
2018-05-03T07:57:05.231Z,14.88
2018-05-03T07:59:33.735Z,15.00
2018-05-03T08:02:01.329Z,14.79
2018-05-03T08:04:29.010Z,14.84
2018-05-03T08:06:56.597Z,14.97
2018-05-03T08:09:24.977Z,15.07
2018-05-03T08:11:53.397Z,15.17
2018-05-03T08:14:21.845Z,15.49
2018-05-03T08:16:49.421Z,15.49
2018-05-03T08:19:17.036Z,15.76
2018-05-03T08:21:44.701Z,15.80
2018-05-03T08:24:13.081Z,15.83
2018-05-03T08:26:41.567Z,15.71
2018-05-03T08:29:10.049Z,15.83
2018-05-03T08:31:38.561Z,15.48
2018-05-03T08:34:06.133Z,15.84
2018-05-03T08:36:33.808Z,15.80
2018-05-03T08:39:01.385Z,16.01
2018-05-03T08:41:29.001Z,16.07
2018-05-03T08:43:56.636Z,15.99
2018-05-03T08:46:24.221Z,16.27
2018-05-03T08:48:51.801Z,16.37
2018-05-03T08:53:52.242Z,16.67
2018-05-03T08:56:19.823Z,16.60
2018-05-03T08:58:47.433Z,16.73
2018-05-03T09:01:15.020Z,16.93
2018-05-03T09:03:42.601Z,17.09
2018-05-03T09:06:10.213Z,17.17
2018-05-03T09:08:38.703Z,17.12
2018-05-03T09:11:07.161Z,17.36
2018-05-03T09:13:34.742Z,17.25
2018-05-03T09:16:02.366Z,17.35
2018-05-03T09:18:30.794Z,17.55
2018-05-03T09:20:58.369Z,17.73
2018-05-03T09:23:26.004Z,17.64
2018-05-03T09:25:53.596Z,17.81
2018-05-03T09:28:21.170Z,17.70
2018-05-03T09:30:48.739Z,17.68
2018-05-03T09:33:16.307Z,17.75
2018-05-03T09:35:43.881Z,17.90
2018-05-03T09:38:11.457Z,17.89
2018-05-03T09:40:39.034Z,18.01
2018-05-03T09:43:06.613Z,18.12
2018-05-03T09:45:34.225Z,18.23
2018-05-03T09:48:01.799Z,18.32
2018-05-03T09:50:29.368Z,18.30
2018-05-03T09:52:56.939Z,18.42
2018-05-03T09:55:24.505Z,18.62
2018-05-03T09:57:52.168Z,18.72
2018-05-03T10:00:19.969Z,18.81
2018-05-03T10:02:47.537Z,18.63
2018-05-03T10:05:15.153Z,18.55
2018-05-03T10:07:42.726Z,18.68
2018-05-03T10:10:10.293Z,18.82
2018-05-03T10:12:37.896Z,19.01
2018-05-03T10:15:05.473Z,19.26
2018-05-03T10:17:33.042Z,19.24
2018-05-03T10:20:00.612Z,19.25
2018-05-03T10:22:28.181Z,19.27
2018-05-03T10:24:56.705Z,19.48
2018-05-03T10:27:24.277Z,19.44
2018-05-03T10:29:51.888Z,19.51
2018-05-03T10:32:19.466Z,19.72
2018-05-03T10:34:47.043Z,19.81
2018-05-03T10:37:14.633Z,19.75
2018-05-03T10:39:42.209Z,19.87
2018-05-03T10:42:09.837Z,19.98
2018-05-03T10:44:37.385Z,19.86
2018-05-03T10:47:04.954Z,20.10
2018-05-03T10:49:32.526Z,20.44
2018-05-03T10:52:00.094Z,20.86
2018-05-03T10:54:27.700Z,21.05
2018-05-03T10:56:56.081Z,21.29
2018-05-03T10:59:23.657Z,21.41
2018-05-03T11:01:51.978Z,21.00
2018-05-03T11:04:19.558Z,20.58
2018-05-03T11:06:47.131Z,20.23
2018-05-03T11:09:14.701Z,20.26
2018-05-03T11:11:42.365Z,20.04
2018-05-03T11:14:09.933Z,19.67
2018-05-03T11:16:37.510Z,19.51
2018-05-03T11:19:06.050Z,19.61
2018-05-03T11:21:33.629Z,19.67
2018-05-03T11:24:01.292Z,20.06
2018-05-03T11:26:28.865Z,20.26
2018-05-03T11:28:56.449Z,20.76
2018-05-03T11:31:24.088Z,21.21
2018-05-03T11:33:51.637Z,21.40
2018-05-03T11:36:19.305Z,21.45
2018-05-03T11:38:46.968Z,21.45
2018-05-03T11:41:14.565Z,21.64
2018-05-03T11:43:42.138Z,21.67
2018-05-03T11:46:09.717Z,21.35
2018-05-03T11:48:37.310Z,21.25
2018-05-03T11:51:04.884Z,21.68
2018-05-03T11:53:32.459Z,21.47
2018-05-03T11:56:00.100Z,21.24
2018-05-03T11:58:27.678Z,21.39
2018-05-03T12:00:55.254Z,21.64
2018-05-03T12:03:23.624Z,21.69
2018-05-03T12:05:51.334Z,21.73
2018-05-03T12:08:18.921Z,21.43
2018-05-03T12:10:46.497Z,21.62
2018-05-03T12:13:14.073Z,21.28
2018-05-03T12:15:41.641Z,21.04
2018-05-03T12:18:09.215Z,21.23
2018-05-03T12:20:36.793Z,21.09
2018-05-03T12:23:04.365Z,21.13
2018-05-03T12:25:31.932Z,21.11
2018-05-03T12:28:00.417Z,21.12
2018-05-03T12:30:28.708Z,21.06
2018-05-03T12:32:56.276Z,21.20
2018-05-03T12:35:23.846Z,21.20
2018-05-03T12:37:51.422Z,21.45
2018-05-03T12:40:19.057Z,21.83
2018-05-03T12:42:46.630Z,21.75
2018-05-03T12:45:14.276Z,21.77
2018-05-03T12:47:41.941Z,21.98
2018-05-03T12:50:09.509Z,21.96
2018-05-03T12:52:37.077Z,22.17
2018-05-03T12:55:04.767Z,22.26
2018-05-03T12:57:32.344Z,22.40
2018-05-03T12:59:59.917Z,22.86
2018-05-03T13:02:27.497Z,22.89
2018-05-03T13:04:55.065Z,22.85
2018-05-03T13:07:22.641Z,22.88
2018-05-03T13:09:50.205Z,22.61
2018-05-03T13:12:17.780Z,22.10
2018-05-03T13:14:45.362Z,22.23
2018-05-03T13:17:12.932Z,22.35
2018-05-03T13:19:40.508Z,22.12
2018-05-03T13:22:08.077Z,22.17
2018-05-03T13:24:35.653Z,22.36
2018-05-03T13:27:03.330Z,22.59
2018-05-03T13:29:30.897Z,22.49
2018-05-03T13:31:58.544Z,22.23
2018-05-03T13:34:26.232Z,21.98
2018-05-03T13:36:53.720Z,22.11
2018-05-03T13:39:21.284Z,22.16
2018-05-03T13:41:48.851Z,22.15
2018-05-03T13:44:16.453Z,21.97
2018-05-03T13:46:44.025Z,22.02
2018-05-03T13:49:11.604Z,22.22
2018-05-03T13:51:39.176Z,22.50
2018-05-03T13:54:06.747Z,22.65
2018-05-03T13:56:34.357Z,23.14
2018-05-03T13:59:01.926Z,22.99
2018-05-03T14:01:29.497Z,23.06
2018-05-03T14:03:57.076Z,23.22
2018-05-03T14:06:24.648Z,23.58
2018-05-03T14:08:52.216Z,23.60
2018-05-03T14:11:19.789Z,23.76
2018-05-03T14:13:48.382Z,23.42
2018-05-03T14:16:16.097Z,23.06
2018-05-03T14:18:43.741Z,22.38
2018-05-03T14:21:11.332Z,22.36
2018-05-03T14:23:38.905Z,22.61
2018-05-03T14:26:06.479Z,22.41
2018-05-03T14:28:34.049Z,22.54
2018-05-03T14:31:01.649Z,22.76
2018-05-03T14:33:29.222Z,22.69
2018-05-03T14:35:56.793Z,22.79
2018-05-03T14:38:25.154Z,22.88
2018-05-03T14:40:53.505Z,22.81
2018-05-03T14:43:21.101Z,22.65
2018-05-03T14:45:48.749Z,22.34
2018-05-03T14:48:16.317Z,22.45
2018-05-03T14:50:43.918Z,22.63
2018-05-03T14:53:11.526Z,22.84
2018-05-03T14:55:39.114Z,23.12
2018-05-03T14:58:06.677Z,23.22
2018-05-03T15:00:34.280Z,23.42
2018-05-03T15:03:01.885Z,24.08
2018-05-03T15:05:29.458Z,23.62
2018-05-03T15:07:57.024Z,23.98
2018-05-03T15:10:24.588Z,24.29
2018-05-03T15:12:52.170Z,24.06
2018-05-03T15:15:19.738Z,23.71
2018-05-03T15:17:47.349Z,23.92
2018-05-03T15:20:14.917Z,24.29
2018-05-03T15:22:42.489Z,24.62
2018-05-03T15:25:10.059Z,24.47
2018-05-03T15:27:37.636Z,24.15
2018-05-03T15:30:05.200Z,24.45
2018-05-03T15:32:32.771Z,24.64
2018-05-03T15:35:00.384Z,24.45
2018-05-03T15:37:27.961Z,24.17
2018-05-03T15:39:55.597Z,24.45
2018-05-03T15:42:23.158Z,24.55
2018-05-03T15:44:51.437Z,24.27
2018-05-03T15:47:19.014Z,24.76
2018-05-03T15:49:46.611Z,24.93
2018-05-03T15:52:14.183Z,23.95
2018-05-03T15:54:41.749Z,23.60
2018-05-03T15:57:09.349Z,23.02
2018-05-03T15:59:36.924Z,22.40
2018-05-03T16:02:05.389Z,21.96
2018-05-03T16:04:33.052Z,21.77
2018-05-03T16:07:00.630Z,21.37
2018-05-03T16:09:28.192Z,21.07
2018-05-03T16:11:55.765Z,20.81
2018-05-03T16:14:23.397Z,20.67
2018-05-03T16:16:50.942Z,20.45
2018-05-03T16:19:18.508Z,20.18
2018-05-03T16:21:46.078Z,20.03
2018-05-03T16:24:13.658Z,19.92
2018-05-03T16:26:41.236Z,19.71
2018-05-03T16:29:08.811Z,19.76
2018-05-03T16:31:36.398Z,19.70
2018-05-03T16:34:04.001Z,19.63
2018-05-03T16:36:31.569Z,19.56
2018-05-03T16:38:59.289Z,19.49
2018-05-03T16:41:26.865Z,19.32
2018-05-03T16:43:54.430Z,19.24
2018-05-03T16:46:22.002Z,19.21
2018-05-03T16:48:49.623Z,19.07
2018-05-03T16:51:17.205Z,19.06
2018-05-03T16:53:44.776Z,18.92
2018-05-03T16:56:12.346Z,18.76
2018-05-03T16:58:39.917Z,18.61
2018-05-03T17:01:07.501Z,18.60
2018-05-03T17:03:35.110Z,18.50
2018-05-03T17:06:02.678Z,18.45
2018-05-03T17:08:32.000Z,18.29
2018-05-03T17:10:59.640Z,18.25
2018-05-03T17:13:27.220Z,18.17
2018-05-03T17:15:54.821Z,17.98
2018-05-03T17:18:22.394Z,18.02
2018-05-03T17:20:49.976Z,17.96
2018-05-03T17:23:17.545Z,17.87
2018-05-03T17:25:46.093Z,17.87
2018-05-03T17:28:13.674Z,17.73
2018-05-03T17:30:42.043Z,17.69
2018-05-03T17:33:09.643Z,17.49
2018-05-03T17:35:37.309Z,17.37
2018-05-03T17:38:04.884Z,17.31
2018-05-03T17:40:32.674Z,17.22
2018-05-03T17:43:00.398Z,17.03
2018-05-03T17:45:28.009Z,16.92
2018-05-03T17:47:56.375Z,16.75
2018-05-03T17:50:24.053Z,16.66
2018-05-03T17:52:51.629Z,16.64
2018-05-03T17:55:19.200Z,16.51
2018-05-03T17:57:46.768Z,16.32
2018-05-03T18:00:14.346Z,16.27
2018-05-03T18:02:41.917Z,16.16
2018-05-03T18:05:09.489Z,16.00
2018-05-03T18:07:37.149Z,15.91
2018-05-03T18:10:04.737Z,15.78
2018-05-03T18:12:32.406Z,15.67
2018-05-03T18:14:59.987Z,15.53
2018-05-03T18:17:27.561Z,15.48
2018-05-03T18:19:55.241Z,15.44
2018-05-03T18:22:22.886Z,15.30
2018-05-03T18:24:51.435Z,15.15
2018-05-03T18:27:19.009Z,15.05
2018-05-03T18:29:47.510Z,14.91
2018-05-03T18:32:15.857Z,14.88
2018-05-03T18:34:44.438Z,14.72
2018-05-03T18:37:12.018Z,14.58
2018-05-03T18:39:39.593Z,14.63
2018-05-03T18:42:07.954Z,14.48
2018-05-03T18:44:36.308Z,14.38
2018-05-03T18:47:04.661Z,14.16
2018-05-03T18:49:32.343Z,13.98
2018-05-03T18:52:00.906Z,13.94
2018-05-03T18:54:29.469Z,13.78
2018-05-03T18:56:57.051Z,13.71
2018-05-03T18:59:24.630Z,13.63
2018-05-03T19:01:52.218Z,13.71
2018-05-03T19:04:19.832Z,13.73
2018-05-03T19:06:47.495Z,13.51
2018-05-03T19:09:15.067Z,13.39
2018-05-03T19:11:43.539Z,13.39
2018-05-03T19:14:11.917Z,13.23
2018-05-03T19:16:39.558Z,13.14
2018-05-03T19:19:07.918Z,13.09
2018-05-03T19:21:36.418Z,13.05
2018-05-03T19:24:03.999Z,13.05
2018-05-03T19:26:31.583Z,12.91
2018-05-03T19:28:59.154Z,12.82
2018-05-03T19:31:26.767Z,12.77
2018-05-03T19:33:54.347Z,12.77
2018-05-03T19:36:21.923Z,12.67
2018-05-03T19:38:49.578Z,12.65
2018-05-03T19:41:17.280Z,12.65
2018-05-03T19:43:44.865Z,12.64
2018-05-03T19:46:12.438Z,12.58
2018-05-03T19:48:40.023Z,12.56
2018-05-03T19:51:07.665Z,12.50
2018-05-03T19:53:35.236Z,12.38
2018-05-03T19:56:03.520Z,12.38
2018-05-03T19:58:31.093Z,12.30
2018-05-03T20:00:59.596Z,12.26
2018-05-03T20:03:28.071Z,12.23
2018-05-03T20:05:56.735Z,12.27
2018-05-03T20:08:24.398Z,12.23
2018-05-03T20:10:51.930Z,12.16
2018-05-03T20:13:19.511Z,12.24
2018-05-03T20:15:47.870Z,12.30
2018-05-03T20:18:16.225Z,12.14
2018-05-03T20:20:43.842Z,12.18
2018-05-03T20:23:11.420Z,12.00
2018-05-03T20:25:38.993Z,11.97
2018-05-03T20:28:06.570Z,11.87
2018-05-03T20:30:34.921Z,11.86
2018-05-03T20:33:02.510Z,11.80
2018-05-03T20:35:30.093Z,11.84
2018-05-03T20:37:57.693Z,11.70
2018-05-03T20:40:25.266Z,11.61
2018-05-03T20:42:52.842Z,11.56
2018-05-03T20:45:20.449Z,11.62
2018-05-03T20:47:48.045Z,11.49
2018-05-03T20:50:15.661Z,11.43
2018-05-03T20:52:43.232Z,11.47
2018-05-03T20:55:11.981Z,11.39
2018-05-03T20:57:40.463Z,11.37
2018-05-03T21:00:08.786Z,11.39
2018-05-03T21:02:36.363Z,11.19
2018-05-03T21:05:03.969Z,11.21
2018-05-03T21:07:31.625Z,11.07
2018-05-03T21:09:59.199Z,10.98
2018-05-03T21:12:26.778Z,11.00
2018-05-03T21:14:54.373Z,11.05
2018-05-03T21:17:21.948Z,10.87
2018-05-03T21:19:49.536Z,10.77
2018-05-03T21:22:17.207Z,10.89
2018-05-03T21:24:44.833Z,10.88
2018-05-03T21:27:12.434Z,10.73
2018-05-03T21:29:40.077Z,10.68
2018-05-03T21:32:07.649Z,10.60
2018-05-03T21:34:35.229Z,10.55
2018-05-03T21:37:02.803Z,10.56
2018-05-03T21:39:30.379Z,10.52
2018-05-03T21:41:59.567Z,10.25
2018-05-03T21:44:27.170Z,10.10
2018-05-03T21:46:54.794Z,9.97
2018-05-03T21:49:22.357Z,9.90
2018-05-03T21:51:49.920Z,9.90
2018-05-03T21:54:18.393Z,9.84
2018-05-03T21:56:46.851Z,9.70
2018-05-03T21:59:14.420Z,9.69
2018-05-03T22:01:42.069Z,9.61
2018-05-03T22:04:09.646Z,9.45
2018-05-03T22:06:37.213Z,9.42
2018-05-03T22:09:04.805Z,9.40
2018-05-03T22:11:32.468Z,9.38
2018-05-03T22:14:00.069Z,9.33
2018-05-03T22:16:27.637Z,9.29
2018-05-03T22:18:55.233Z,9.19
2018-05-03T22:21:23.837Z,9.28
2018-05-03T22:23:52.426Z,9.33
2018-05-03T22:26:20.745Z,9.20
2018-05-03T22:28:48.309Z,9.18
2018-05-03T22:31:16.683Z,9.17
2018-05-03T22:33:44.332Z,9.15
2018-05-03T22:36:11.865Z,9.08
2018-05-03T22:38:39.433Z,9.03
2018-05-03T22:41:06.997Z,8.91
2018-05-03T22:43:34.562Z,8.91
2018-05-03T22:46:02.135Z,8.84
2018-05-03T22:48:29.696Z,8.81
2018-05-03T22:50:57.270Z,8.75
2018-05-03T22:53:24.841Z,8.74
2018-05-03T22:55:52.417Z,8.75
2018-05-03T22:58:20.017Z,8.72
2018-05-03T23:00:47.589Z,8.66
2018-05-03T23:03:15.157Z,8.60
2018-05-03T23:05:42.766Z,8.60
2018-05-03T23:08:10.336Z,8.55
2018-05-03T23:10:37.906Z,8.53
2018-05-03T23:13:05.477Z,8.45
2018-05-03T23:15:33.045Z,8.42
2018-05-03T23:18:01.414Z,8.45
2018-05-03T23:20:29.957Z,8.38
2018-05-03T23:22:57.649Z,8.34
2018-05-03T23:25:26.113Z,8.46
2018-05-03T23:27:54.585Z,8.29
2018-05-03T23:30:22.189Z,8.23
2018-05-03T23:32:49.761Z,8.26
2018-05-03T23:35:18.113Z,8.23
2018-05-03T23:37:45.738Z,8.16
2018-05-03T23:40:13.309Z,8.07
2018-05-03T23:42:40.877Z,8.07
2018-05-03T23:45:09.283Z,8.09
2018-05-03T23:47:36.892Z,8.00
2018-05-03T23:50:05.370Z,7.92
2018-05-03T23:52:32.943Z,7.95
2018-05-03T23:55:00.513Z,7.79
2018-05-03T23:57:28.084Z,7.78
2018-05-03T23:59:55.657Z,7.72
